createdAt,value
2017-09-24T00:00:59.984Z,63.80
2017-09-24T00:03:29.863Z,92.53
2017-09-24T00:05:59.272Z,58.17
2017-09-24T00:08:27.741Z,76.77
2017-09-24T00:10:59.806Z,74.40
2017-09-24T00:13:31.124Z,71.03
2017-09-24T00:16:07.854Z,62.13
2017-09-24T00:18:37.044Z,91.73
2017-09-24T00:21:05.350Z,77.13
2017-09-24T00:23:33.657Z,58.27
2017-09-24T00:26:01.948Z,75.67
2017-09-24T00:28:30.239Z,58.30
2017-09-24T00:30:58.622Z,51.33
2017-09-24T00:33:26.946Z,84.60
2017-09-24T00:35:55.218Z,60.67
2017-09-24T00:38:24.520Z,71.97
2017-09-24T00:40:52.818Z,61.63
2017-09-24T00:43:21.219Z,98.63
2017-09-24T00:46:10.323Z,60.73
2017-09-24T00:48:38.628Z,62.00
2017-09-24T00:51:07.718Z,51.87
2017-09-24T00:53:36.892Z,70.90
2017-09-24T00:56:05.951Z,75.07
2017-09-24T00:58:35.147Z,70.47
2017-09-24T01:01:04.284Z,66.83
2017-09-24T01:03:32.598Z,67.07
2017-09-24T01:06:00.923Z,53.37
2017-09-24T01:08:30.188Z,72.37
2017-09-24T01:10:58.686Z,56.77
2017-09-24T01:13:28.504Z,73.60
2017-09-24T01:15:56.818Z,47.70
2017-09-24T01:18:25.289Z,51.13
2017-09-24T01:20:55.304Z,57.43
2017-09-24T01:23:23.631Z,82.20
2017-09-24T01:25:52.723Z,75.80
2017-09-24T01:28:21.139Z,59.13
2017-09-24T01:30:49.422Z,52.60
2017-09-24T01:33:18.735Z,60.60
2017-09-24T01:35:47.139Z,99.87
2017-09-24T01:38:15.411Z,65.43
2017-09-24T01:40:43.708Z,123.67
2017-09-24T01:43:12.188Z,62.83
2017-09-24T01:45:42.211Z,53.47
2017-09-24T01:48:11.354Z,88.37
2017-09-24T01:50:39.675Z,89.10
2017-09-24T01:53:09.060Z,73.00
2017-09-24T01:55:37.372Z,96.70
2017-09-24T01:58:06.427Z,103.87
2017-09-24T02:00:35.588Z,82.73
2017-09-24T02:03:04.979Z,105.50
2017-09-24T02:05:34.026Z,64.97
2017-09-24T02:08:05.121Z,80.70
2017-09-24T02:10:34.317Z,85.37
2017-09-24T02:13:02.790Z,75.63
2017-09-24T02:15:31.101Z,58.93
2017-09-24T02:18:02.870Z,61.97
2017-09-24T02:20:31.149Z,62.57
2017-09-24T02:22:59.409Z,59.03
2017-09-24T02:25:28.504Z,134.97
2017-09-24T02:27:56.823Z,82.87
2017-09-24T02:30:25.901Z,136.47
2017-09-24T02:32:54.304Z,55.27
2017-09-24T02:35:23.374Z,49.83
2017-09-24T02:37:51.652Z,66.57
2017-09-24T02:40:20.298Z,73.90
2017-09-24T02:42:48.764Z,54.83
2017-09-24T02:45:17.842Z,62.97
2017-09-24T02:47:46.967Z,82.17
2017-09-24T02:50:15.308Z,77.73
2017-09-24T02:52:45.470Z,62.00
2017-09-24T02:55:13.827Z,59.20
2017-09-24T02:57:42.131Z,46.30
2017-09-24T03:00:10.433Z,67.27
2017-09-24T03:02:38.752Z,46.73
2017-09-24T03:05:07.089Z,61.23
2017-09-24T03:07:35.362Z,60.47
2017-09-24T03:10:04.659Z,60.03
2017-09-24T03:12:33.928Z,63.07
2017-09-24T03:15:03.012Z,49.30
2017-09-24T03:17:31.315Z,62.53
2017-09-24T03:20:01.317Z,47.00
2017-09-24T03:22:30.362Z,55.87
2017-09-24T03:24:58.655Z,65.80
2017-09-24T03:27:26.936Z,59.27
2017-09-24T03:29:55.225Z,60.60
2017-09-24T03:32:24.389Z,56.43
2017-09-24T03:34:52.697Z,52.33
2017-09-24T03:37:21.754Z,58.97
2017-09-24T03:39:50.392Z,42.47
2017-09-24T03:42:18.665Z,69.93
2017-09-24T03:44:47.002Z,57.60
2017-09-24T03:47:15.330Z,42.70
2017-09-24T03:49:45.339Z,67.53
2017-09-24T03:52:13.656Z,66.50
2017-09-24T03:54:41.943Z,132.60
2017-09-24T03:57:13.741Z,63.30
2017-09-24T03:59:45.404Z,72.00
2017-09-24T04:02:15.426Z,50.10
2017-09-24T04:04:45.312Z,70.97
2017-09-24T04:07:13.581Z,114.10
2017-09-24T04:09:41.866Z,83.67
2017-09-24T04:12:10.152Z,91.00
2017-09-24T04:14:38.459Z,90.40
2017-09-24T04:17:06.696Z,68.93
2017-09-24T04:19:35.213Z,46.07
2017-09-24T04:22:04.256Z,61.50
2017-09-24T04:24:33.331Z,41.87
2017-09-24T04:27:01.613Z,100.07
2017-09-24T04:29:29.883Z,90.50
2017-09-24T04:31:58.159Z,91.93
2017-09-24T04:34:27.256Z,33.77
2017-09-24T04:36:55.509Z,52.97
2017-09-24T04:39:23.812Z,59.37
2017-09-24T04:41:52.070Z,62.87
2017-09-24T04:44:20.319Z,37.00
2017-09-24T04:46:49.413Z,49.17
2017-09-24T04:49:17.673Z,51.73
2017-09-24T04:51:45.957Z,47.73
2017-09-24T04:54:14.215Z,49.87
2017-09-24T04:56:42.469Z,32.70
2017-09-24T04:59:10.733Z,25.10
2017-09-24T05:01:39.014Z,54.40
2017-09-24T05:04:09.188Z,33.73
2017-09-24T05:06:37.414Z,31.63
2017-09-24T05:09:05.720Z,36.73
2017-09-24T05:11:33.976Z,35.47
2017-09-24T05:14:02.242Z,37.77
2017-09-24T05:16:30.535Z,30.77
2017-09-24T05:19:02.799Z,27.70
2017-09-24T05:21:31.989Z,25.70
2017-09-24T05:24:01.188Z,28.50
2017-09-24T05:26:30.418Z,24.47
2017-09-24T05:28:58.841Z,21.53
2017-09-24T05:31:27.872Z,22.03
2017-09-24T05:33:56.127Z,26.63
2017-09-24T05:36:24.394Z,27.87
2017-09-24T05:38:52.687Z,36.27
2017-09-24T05:41:20.940Z,37.40
2017-09-24T05:43:49.206Z,42.50
2017-09-24T05:46:18.232Z,33.10
2017-09-24T05:48:46.586Z,34.50
2017-09-24T05:51:14.868Z,29.30
2017-09-24T05:53:43.784Z,47.10
2017-09-24T05:56:12.836Z,38.00
2017-09-24T05:58:41.942Z,32.47
2017-09-24T06:01:11.114Z,34.90
2017-09-24T06:03:39.494Z,42.63
2017-09-24T06:06:07.767Z,44.70
2017-09-24T06:08:36.829Z,37.47
2017-09-24T06:11:05.117Z,70.70
2017-09-24T06:13:33.369Z,39.10
2017-09-24T06:16:02.477Z,27.60
2017-09-24T06:18:30.742Z,63.93
2017-09-24T06:20:59.120Z,103.97
2017-09-24T06:23:28.314Z,48.30
2017-09-24T06:25:57.353Z,52.23
2017-09-24T06:28:27.268Z,41.90
2017-09-24T06:30:55.567Z,47.97
2017-09-24T06:33:23.858Z,35.63
2017-09-24T06:35:52.217Z,33.03
2017-09-24T06:38:20.607Z,33.83
2017-09-24T06:40:49.675Z,38.83
2017-09-24T06:43:20.543Z,31.57
2017-09-24T06:45:48.859Z,31.60
2017-09-24T06:48:17.895Z,30.70
2017-09-24T06:50:46.306Z,36.10
2017-09-24T06:53:14.577Z,26.37
2017-09-24T06:55:42.970Z,28.00
2017-09-24T06:58:13.155Z,24.80
2017-09-24T07:00:41.646Z,23.43
2017-09-24T07:03:09.967Z,29.30
2017-09-24T07:05:38.998Z,29.23
2017-09-24T07:08:08.823Z,24.73
2017-09-24T07:10:37.098Z,29.87
2017-09-24T07:13:05.395Z,25.73
2017-09-24T07:15:34.958Z,27.90
2017-09-24T07:18:03.386Z,27.03
2017-09-24T07:20:33.234Z,24.97
2017-09-24T07:23:05.799Z,24.73
2017-09-24T07:25:35.822Z,28.53
2017-09-24T07:28:04.466Z,24.90
2017-09-24T07:30:32.749Z,25.80
2017-09-24T07:33:01.083Z,24.57
2017-09-24T07:35:29.355Z,28.53
2017-09-24T07:37:57.748Z,25.70
2017-09-24T07:40:26.177Z,28.93
2017-09-24T07:42:54.479Z,31.43
2017-09-24T07:45:23.660Z,36.43
2017-09-24T07:47:56.346Z,30.87
2017-09-24T07:50:25.429Z,34.20
2017-09-24T07:52:53.737Z,29.90
2017-09-24T07:55:22.029Z,29.63
2017-09-24T07:57:50.347Z,29.30
2017-09-24T08:00:19.494Z,34.17
2017-09-24T08:02:48.664Z,30.47
2017-09-24T08:05:17.732Z,32.67
2017-09-24T08:07:46.842Z,27.50
2017-09-24T08:10:15.887Z,33.23
2017-09-24T08:12:49.230Z,33.70
2017-09-24T08:15:17.608Z,38.00
2017-09-24T08:17:45.911Z,33.17
2017-09-24T08:20:14.225Z,34.60
2017-09-24T08:22:42.520Z,40.17
2017-09-24T08:25:10.851Z,53.37
2017-09-24T08:27:39.151Z,58.83
2017-09-24T08:30:07.465Z,57.43
2017-09-24T08:32:35.830Z,58.73
2017-09-24T08:35:05.254Z,56.33
2017-09-24T08:37:33.542Z,53.20
2017-09-24T08:40:03.288Z,50.00
2017-09-24T08:42:31.618Z,56.57
2017-09-24T08:45:00.013Z,54.00
2017-09-24T08:47:29.638Z,64.03
2017-09-24T08:49:58.565Z,62.37
2017-09-24T08:52:29.498Z,58.13
2017-09-24T08:54:57.812Z,66.63
2017-09-24T08:57:26.120Z,59.70
2017-09-24T08:59:54.420Z,63.40
2017-09-24T09:02:24.341Z,76.70
2017-09-24T09:04:53.394Z,68.43
2017-09-24T09:07:21.703Z,68.37
2017-09-24T09:09:50.763Z,71.30
2017-09-24T09:12:19.067Z,60.50
2017-09-24T09:14:48.173Z,71.07
2017-09-24T09:17:16.444Z,64.70
2017-09-24T09:19:44.771Z,59.70
2017-09-24T09:22:13.965Z,61.97
2017-09-24T09:24:42.272Z,62.20
2017-09-24T09:27:10.605Z,64.07
2017-09-24T09:29:39.862Z,64.67
2017-09-24T09:32:08.936Z,65.23
2017-09-24T09:34:37.278Z,67.80
2017-09-24T09:37:06.581Z,63.90
2017-09-24T09:39:35.810Z,60.53
2017-09-24T09:42:04.167Z,64.60
2017-09-24T09:44:44.490Z,71.70
2017-09-24T09:47:24.687Z,77.87
2017-09-24T09:49:53.794Z,77.80
2017-09-24T09:52:22.969Z,71.33
2017-09-24T09:54:51.378Z,64.97
2017-09-24T09:57:19.757Z,65.00
2017-09-24T09:59:48.073Z,66.77
2017-09-24T10:02:17.144Z,61.43
2017-09-24T10:04:46.359Z,61.20
2017-09-24T10:07:26.617Z,60.90
2017-09-24T10:10:02.715Z,57.80
2017-09-24T10:12:31.051Z,59.07
2017-09-24T10:15:00.108Z,51.77
2017-09-24T10:17:28.427Z,51.53
2017-09-24T10:19:56.757Z,49.93
2017-09-24T10:22:25.086Z,48.07
2017-09-24T10:24:53.349Z,48.67
2017-09-24T10:27:23.413Z,48.50
2017-09-24T10:30:05.487Z,42.97
2017-09-24T10:32:36.227Z,37.70
2017-09-24T10:35:05.473Z,36.17
2017-09-24T10:37:34.722Z,37.60
2017-09-24T10:40:03.101Z,43.80
2017-09-24T10:42:31.390Z,45.73
2017-09-24T10:45:00.477Z,43.47
2017-09-24T10:47:29.546Z,43.60
2017-09-24T10:49:58.203Z,41.50
2017-09-24T10:52:26.754Z,41.30
2017-09-24T10:54:55.821Z,37.70
2017-09-24T10:57:25.993Z,42.40
2017-09-24T10:59:55.267Z,38.70
2017-09-24T11:02:24.536Z,37.60
2017-09-24T11:04:53.432Z,42.43
2017-09-24T11:07:23.257Z,36.20
2017-09-24T11:09:51.913Z,37.03
2017-09-24T11:12:21.284Z,41.20
2017-09-24T11:14:50.532Z,33.03
2017-09-24T11:17:21.444Z,31.27
2017-09-24T11:19:50.570Z,32.83
2017-09-24T11:22:18.821Z,32.10
2017-09-24T11:24:47.111Z,26.83
2017-09-24T11:27:15.407Z,26.83
2017-09-24T11:29:44.460Z,24.23
2017-09-24T11:32:12.826Z,29.80
2017-09-24T11:34:41.168Z,30.90
2017-09-24T11:37:09.442Z,29.37
2017-09-24T11:39:40.325Z,28.90
2017-09-24T11:42:08.849Z,30.80
2017-09-24T11:44:38.077Z,26.83
2017-09-24T11:47:06.375Z,27.60
2017-09-24T11:49:35.647Z,31.13
2017-09-24T11:52:04.702Z,30.00
2017-09-24T11:54:33.801Z,31.20
2017-09-24T11:57:02.093Z,32.40
2017-09-24T11:59:30.350Z,32.10
2017-09-24T12:01:58.748Z,32.40
2017-09-24T12:04:27.844Z,34.03
2017-09-24T12:06:56.122Z,32.87
2017-09-24T12:09:24.465Z,33.57
2017-09-24T12:11:53.866Z,31.00
2017-09-24T12:14:22.270Z,29.80
2017-09-24T12:16:51.659Z,32.00
2017-09-24T12:19:21.419Z,31.90
2017-09-24T12:21:50.681Z,32.40
2017-09-24T12:24:18.969Z,32.23
2017-09-24T12:26:48.876Z,32.70
2017-09-24T12:29:17.199Z,32.00
2017-09-24T12:31:46.292Z,30.20
2017-09-24T12:34:14.663Z,33.33
2017-09-24T12:36:44.673Z,30.07
2017-09-24T12:39:13.738Z,26.70
2017-09-24T12:41:48.126Z,21.80
2017-09-24T12:44:16.402Z,21.80
2017-09-24T12:46:44.671Z,22.10
2017-09-24T12:49:13.919Z,24.47
2017-09-24T12:51:43.090Z,20.07
2017-09-24T12:54:11.397Z,25.40
2017-09-24T12:56:39.718Z,26.27
2017-09-24T12:59:08.068Z,27.33
2017-09-24T13:01:59.931Z,26.17
2017-09-24T13:04:28.290Z,25.97
2017-09-24T13:06:57.467Z,26.47
2017-09-24T13:09:26.539Z,27.33
2017-09-24T13:11:55.685Z,26.83
2017-09-24T13:14:24.142Z,27.23
2017-09-24T13:16:53.940Z,28.17
2017-09-24T13:19:22.423Z,25.80
2017-09-24T13:21:50.719Z,25.80
2017-09-24T13:24:19.801Z,26.30
2017-09-24T13:26:48.146Z,26.50
2017-09-24T13:29:16.885Z,24.60
2017-09-24T13:31:45.232Z,24.47
2017-09-24T13:34:14.525Z,22.87
2017-09-24T13:36:42.782Z,24.53
2017-09-24T13:39:11.370Z,21.40
2017-09-24T13:41:40.754Z,26.83
2017-09-24T13:44:09.090Z,28.30
2017-09-24T13:46:37.396Z,25.77
2017-09-24T13:49:06.556Z,26.53
2017-09-24T13:51:35.022Z,26.23
2017-09-24T13:54:04.106Z,26.80
2017-09-24T13:56:33.432Z,23.87
2017-09-24T13:59:03.271Z,28.13
2017-09-24T14:01:32.349Z,23.97
2017-09-24T14:04:05.467Z,25.80
2017-09-24T14:06:33.910Z,26.00
2017-09-24T14:09:02.760Z,24.40
2017-09-24T14:11:32.211Z,26.57
2017-09-24T14:14:01.408Z,25.70
2017-09-24T14:16:30.494Z,28.93
2017-09-24T14:18:59.637Z,26.73
2017-09-24T14:21:28.090Z,24.30
2017-09-24T14:23:57.353Z,26.27
2017-09-24T14:26:25.687Z,26.63
2017-09-24T14:28:54.441Z,26.80
2017-09-24T14:31:22.950Z,25.30
2017-09-24T14:33:52.041Z,24.47
2017-09-24T14:36:22.187Z,24.30
2017-09-24T14:38:50.548Z,23.17
2017-09-24T14:41:19.662Z,24.70
2017-09-24T14:43:47.997Z,24.50
2017-09-24T14:46:18.685Z,25.00
2017-09-24T14:48:47.833Z,25.87
2017-09-24T14:51:16.138Z,27.70
2017-09-24T14:53:45.355Z,26.00
2017-09-24T14:56:13.727Z,26.50
2017-09-24T14:58:42.036Z,25.97
2017-09-24T15:01:10.408Z,27.17
2017-09-24T15:03:39.729Z,25.13
2017-09-24T15:06:08.036Z,26.73
2017-09-24T15:08:37.258Z,25.87
2017-09-24T15:11:06.398Z,26.47
2017-09-24T15:13:35.528Z,27.10
2017-09-24T15:16:04.811Z,26.63
2017-09-24T15:18:33.965Z,26.27
2017-09-24T15:21:03.024Z,25.30
2017-09-24T15:23:32.135Z,25.53
2017-09-24T15:26:01.210Z,25.30
2017-09-24T15:28:30.499Z,24.97
2017-09-24T15:30:59.816Z,28.83
2017-09-24T15:33:29.843Z,25.53
2017-09-24T15:35:59.733Z,24.50
2017-09-24T15:38:28.082Z,25.17
2017-09-24T15:43:57.754Z,24.40
2017-09-24T15:46:27.014Z,21.73
2017-09-24T15:48:55.311Z,22.87
2017-09-24T15:51:24.694Z,22.93
2017-09-24T15:53:53.045Z,19.23
2017-09-24T15:56:22.093Z,18.60
2017-09-24T15:58:51.161Z,17.67
2017-09-24T16:01:19.609Z,18.27
2017-09-24T16:03:48.669Z,17.90
2017-09-24T16:06:18.730Z,17.73
2017-09-24T16:08:48.652Z,18.30
2017-09-24T16:11:17.731Z,18.80
2017-09-24T16:13:46.889Z,18.90
2017-09-24T16:16:16.348Z,17.90
2017-09-24T16:18:45.614Z,18.60
2017-09-24T16:21:14.759Z,16.67
2017-09-24T16:23:43.072Z,16.73
2017-09-24T16:26:11.473Z,16.93
2017-09-24T16:28:39.841Z,17.30
2017-09-24T16:31:09.022Z,15.57
2017-09-24T16:33:37.423Z,17.00
2017-09-24T16:36:05.970Z,15.47
2017-09-24T16:38:39.136Z,15.27
2017-09-24T16:41:10.947Z,22.97
2017-09-24T16:43:39.304Z,15.73
2017-09-24T16:46:08.634Z,16.03
2017-09-24T16:48:38.745Z,14.00
2017-09-24T16:51:08.108Z,16.20
2017-09-24T16:53:37.249Z,16.67
2017-09-24T16:56:05.878Z,16.20
2017-09-24T16:58:34.271Z,17.93
2017-09-24T17:01:03.452Z,16.33
2017-09-24T17:03:31.843Z,18.73
2017-09-24T17:06:00.225Z,19.77
2017-09-24T17:08:28.631Z,21.87
2017-09-24T17:10:57.023Z,20.60
2017-09-24T17:13:25.425Z,20.90
2017-09-24T17:15:53.795Z,21.50
2017-09-24T17:18:23.735Z,20.23
2017-09-24T17:20:52.116Z,21.93
2017-09-24T17:23:21.240Z,24.50
2017-09-24T17:25:50.432Z,19.27
2017-09-24T17:28:18.775Z,19.97
2017-09-24T17:30:47.439Z,19.20
2017-09-24T17:33:16.580Z,20.97
2017-09-24T17:35:44.985Z,20.80
2017-09-24T17:38:14.066Z,20.53
2017-09-24T17:40:45.166Z,19.23
2017-09-24T17:43:14.290Z,24.43
2017-09-24T17:45:43.067Z,21.87
2017-09-24T17:48:11.505Z,23.13
2017-09-24T17:50:39.886Z,18.70
2017-09-24T17:53:08.431Z,22.23
2017-09-24T17:55:36.890Z,18.80
2017-09-24T17:58:06.104Z,18.23
2017-09-24T18:00:34.950Z,17.13
2017-09-24T18:03:03.604Z,16.73
2017-09-24T18:05:35.857Z,16.30
2017-09-24T18:08:05.309Z,13.27
2017-09-24T18:10:34.369Z,12.30
2017-09-24T18:13:05.742Z,11.43
2017-09-24T18:15:34.066Z,11.10
2017-09-24T18:18:02.476Z,12.80
2017-09-24T18:20:30.919Z,9.80
2017-09-24T18:23:00.164Z,9.30
2017-09-24T18:25:29.383Z,10.40
2017-09-24T18:27:58.555Z,10.10
2017-09-24T18:30:27.060Z,9.60
2017-09-24T18:32:56.471Z,12.40
2017-09-24T18:35:27.509Z,11.80
2017-09-24T18:37:56.041Z,9.13
2017-09-24T18:40:25.510Z,10.27
2017-09-24T18:42:54.914Z,11.67
2017-09-24T18:45:26.516Z,11.47
2017-09-24T18:47:55.240Z,9.90
2017-09-24T18:50:24.486Z,9.70
2017-09-24T18:52:53.709Z,9.40
2017-09-24T18:55:22.079Z,9.30
2017-09-24T18:57:50.391Z,8.70
2017-09-24T19:00:18.787Z,9.60
2017-09-24T19:02:47.260Z,9.30
2017-09-24T19:05:18.011Z,9.60
2017-09-24T19:07:46.441Z,9.40
2017-09-24T19:10:14.854Z,8.77
2017-09-24T19:12:44.371Z,10.50
2017-09-24T19:15:13.907Z,10.10
2017-09-24T19:17:42.423Z,9.83
2017-09-24T19:20:10.893Z,9.07
2017-09-24T19:22:40.235Z,10.60
2017-09-24T19:25:09.498Z,10.27
2017-09-24T19:27:38.734Z,10.43
2017-09-24T19:30:09.899Z,9.83
2017-09-24T19:32:39.631Z,17.27
2017-09-24T19:35:08.883Z,10.97
2017-09-24T19:37:38.407Z,10.27
2017-09-24T19:40:06.833Z,11.53
2017-09-24T19:42:36.519Z,10.10
2017-09-24T19:45:05.091Z,11.70
2017-09-24T19:47:34.638Z,11.87
2017-09-24T19:50:04.901Z,11.27
2017-09-24T19:52:34.504Z,11.07
2017-09-24T19:55:04.273Z,10.50
2017-09-24T19:57:34.699Z,11.37
2017-09-24T20:00:08.412Z,11.53
2017-09-24T20:02:39.495Z,12.00
2017-09-24T20:05:09.326Z,11.83
2017-09-24T20:07:37.841Z,11.87
2017-09-24T20:10:06.235Z,11.43
2017-09-24T20:12:36.795Z,11.33
2017-09-24T20:15:06.814Z,10.73
2017-09-24T20:17:35.998Z,14.00
2017-09-24T20:20:04.729Z,13.23
2017-09-24T20:22:33.102Z,11.80
2017-09-24T20:25:03.248Z,11.73
2017-09-24T20:27:31.624Z,12.73
2017-09-24T20:30:00.055Z,13.33
2017-09-24T20:32:29.556Z,13.20
2017-09-24T20:34:57.929Z,12.50
2017-09-24T20:37:26.405Z,11.93
2017-09-24T20:39:55.663Z,12.90
2017-09-24T20:42:24.939Z,14.50
2017-09-24T20:44:54.105Z,13.10
2017-09-24T20:47:24.161Z,13.40
2017-09-24T20:49:52.493Z,13.33
2017-09-24T20:52:20.853Z,13.63
2017-09-24T20:54:49.314Z,13.20
2017-09-24T20:57:17.701Z,13.23
2017-09-24T20:59:46.904Z,13.17
2017-09-24T21:02:15.443Z,17.05
2017-09-24T21:04:43.959Z,14.57
2017-09-24T21:07:12.357Z,11.30
2017-09-24T21:09:41.507Z,10.90
2017-09-24T21:12:09.893Z,12.63
2017-09-24T21:14:39.908Z,13.20
2017-09-24T21:17:09.187Z,13.07
2017-09-24T21:19:37.656Z,13.47
2017-09-24T21:22:06.781Z,14.27
2017-09-24T21:24:35.058Z,13.93
2017-09-24T21:27:03.380Z,15.60
2017-09-24T21:29:32.579Z,13.77
2017-09-24T21:32:01.046Z,13.23
2017-09-24T21:34:29.324Z,13.00
2017-09-24T21:36:57.689Z,15.03
2017-09-24T21:39:25.957Z,14.83
2017-09-24T21:41:54.265Z,12.30
2017-09-24T21:44:23.353Z,14.07
2017-09-24T21:46:51.683Z,12.80
2017-09-24T21:49:20.147Z,13.97
2017-09-24T21:51:49.212Z,14.50
2017-09-24T21:54:17.512Z,14.20
2017-09-24T21:56:46.645Z,14.37
2017-09-24T21:59:14.943Z,13.73
2017-09-24T22:01:43.229Z,12.67
2017-09-24T22:04:11.587Z,15.70
2017-09-24T22:06:39.868Z,15.40
2017-09-24T22:09:08.149Z,16.37
2017-09-24T22:11:36.568Z,13.97
2017-09-24T22:14:05.968Z,15.90
2017-09-24T22:16:34.255Z,13.90
2017-09-24T22:19:02.589Z,14.93
2017-09-24T22:21:30.889Z,15.20
2017-09-24T22:23:59.180Z,15.10
2017-09-24T22:26:27.471Z,19.43
2017-09-24T22:28:56.662Z,16.27
2017-09-24T22:31:24.956Z,14.90
2017-09-24T22:33:53.417Z,13.77
2017-09-24T22:36:22.616Z,13.00
2017-09-24T22:38:50.911Z,12.33
2017-09-24T22:41:19.173Z,14.97
2017-09-24T22:43:47.542Z,14.33
2017-09-24T22:46:16.726Z,15.70
2017-09-24T22:48:44.985Z,16.73
2017-09-24T22:51:13.318Z,16.77
2017-09-24T22:53:42.315Z,19.20
2017-09-24T22:56:10.601Z,18.97
2017-09-24T22:58:38.939Z,17.90
2017-09-24T23:01:07.163Z,13.80
2017-09-24T23:03:47.579Z,13.10
2017-09-24T23:06:17.595Z,14.70
2017-09-24T23:08:46.665Z,14.70
2017-09-24T23:11:15.070Z,17.97
2017-09-24T23:13:43.329Z,17.00
2017-09-24T23:16:13.629Z,21.83
2017-09-24T23:18:41.911Z,19.17
2017-09-24T23:21:10.211Z,19.17
2017-09-24T23:23:39.269Z,16.60
2017-09-24T23:26:07.894Z,15.10
2017-09-24T23:28:37.788Z,16.17
2017-09-24T23:31:08.838Z,13.43
2017-09-24T23:33:37.072Z,15.13
2017-09-24T23:36:05.356Z,15.40
2017-09-24T23:38:33.639Z,16.63
2017-09-24T23:41:01.900Z,14.20
2017-09-24T23:43:30.198Z,13.67
2017-09-24T23:45:58.547Z,13.93
2017-09-24T23:48:26.965Z,15.53
2017-09-24T23:50:56.244Z,16.60
2017-09-24T23:53:24.524Z,23.23
2017-09-24T23:55:52.776Z,22.13
2017-09-24T23:58:21.078Z,23.50
